Time;durP1;ratioP1;P1;durP2;ratioP2;P2;SDS_P1;SDS_P2;PMS_P1;PMS_P2;Temp;Humidity;BMP_temperature;BMP_pressure;BME280_temperature;BME280_humidity;BME280_pressure;Samples;Min_cycle;Max_cycle;Signal;HPM_P1;HPM_P2
2020/12/18 00:01:22;;;;;;;57.65;27.42;;;3.40;90.10;;;;;;4956727;29;20537;-77
2020/12/18 00:03:49;;;;;;;59.30;27.48;;;3.30;90.20;;;;;;4954097;29;20035;-78
2020/12/18 00:06:15;;;;;;;55.00;26.58;;;3.30;90.30;;;;;;4956554;28;20036;-77
2020/12/18 00:08:41;;;;;;;63.97;28.85;;;3.30;90.50;;;;;;4971631;28;20031;-77
2020/12/18 00:11:06;;;;;;;59.03;27.83;;;3.20;90.60;;;;;;4961997;28;20027;-77
2020/12/18 00:13:32;;;;;;;61.10;29.23;;;3.20;90.70;;;;;;4956195;29;20059;-77
2020/12/18 00:15:58;;;;;;;62.47;28.45;;;3.30;90.90;;;;;;4955984;29;20384;-77
2020/12/18 00:18:23;;;;;;;63.50;27.75;;;3.30;90.70;;;;;;4939200;29;20031;-77
2020/12/18 00:20:50;;;;;;;65.20;30.17;;;3.20;90.80;;;;;;4956061;29;20486;-76
2020/12/18 00:23:16;;;;;;;60.40;29.30;;;3.10;90.90;;;;;;4956088;29;20047;-77
2020/12/18 00:25:49;;;;;;;62.72;29.25;;;3.00;91.00;;;;;;4939612;29;20453;-77
2020/12/18 00:28:15;;;;;;;62.83;29.92;;;3.00;91.20;;;;;;4956389;29;20475;-77
2020/12/18 00:30:41;;;;;;;68.68;30.23;;;2.90;91.50;;;;;;4956096;29;20039;-77
2020/12/18 00:33:07;;;;;;;69.80;30.33;;;2.80;91.60;;;;;;4956408;29;20463;-76
2020/12/18 00:35:33;;;;;;;72.82;29.98;;;2.80;91.80;;;;;;4955695;29;20093;-76
2020/12/18 00:37:59;;;;;;;70.35;31.17;;;2.80;92.00;;;;;;4956150;29;20035;-76
2020/12/18 00:40:24;;;;;;;64.63;29.20;;;2.80;92.20;;;;;;4956318;29;20033;-76
2020/12/18 00:42:50;;;;;;;64.20;29.67;;;2.80;92.10;;;;;;4955880;29;20038;-76
2020/12/18 00:45:16;;;;;;;69.68;29.25;;;2.80;92.10;;;;;;4955746;28;20042;-75
2020/12/18 00:47:41;;;;;;;54.80;26.80;;;2.80;92.10;;;;;;4938783;29;20051;-77
2020/12/18 00:50:07;;;;;;;58.00;26.42;;;2.70;92.10;;;;;;4956264;29;20023;-77
2020/12/18 00:52:33;;;;;;;54.15;24.85;;;2.60;91.90;;;;;;4956177;29;20047;-76
2020/12/18 00:54:58;;;;;;;51.25;25.58;;;2.60;91.90;;;;;;4956063;29;20027;-77
2020/12/18 00:57:25;;;;;;;63.15;26.52;;;2.50;92.00;;;;;;4955565;29;20126;-78
2020/12/18 00:59:51;;;;;;;59.45;25.73;;;2.30;92.20;;;;;;4955529;29;20027;-77
2020/12/18 01:02:17;;;;;;;63.97;28.38;;;2.30;92.30;;;;;;4951346;29;20102;-77
2020/12/18 01:04:42;;;;;;;59.22;26.48;;;2.20;92.40;;;;;;4950969;28;20097;-77
2020/12/18 01:07:08;;;;;;;78.72;29.45;;;2.20;92.40;;;;;;4939714;28;20042;-76
2020/12/18 01:09:34;;;;;;;63.67;29.35;;;2.20;93.00;;;;;;4954985;28;20034;-76
2020/12/18 01:11:59;;;;;;;77.05;31.30;;;2.20;92.70;;;;;;4955714;29;20383;-76
2020/12/18 01:14:25;;;;;;;67.15;28.85;;;2.30;93.00;;;;;;4948754;29;20059;-77
2020/12/18 01:16:52;;;;;;;64.30;28.98;;;2.30;92.70;;;;;;4936057;29;20047;-77
2020/12/18 01:19:19;;;;;;;77.00;30.40;;;2.30;92.60;;;;;;4936129;29;20024;-78
2020/12/18 01:21:45;;;;;;;75.93;30.77;;;2.30;92.80;;;;;;4936097;29;20138;-75
2020/12/18 01:24:11;;;;;;;75.53;29.98;;;2.30;92.80;;;;;;4936181;29;20106;-75
2020/12/18 01:26:36;;;;;;;69.20;28.73;;;2.30;92.90;;;;;;4936058;29;20582;-76
2020/12/18 01:29:02;;;;;;;67.03;28.77;;;2.30;92.80;;;;;;4935825;29;20071;-76
2020/12/18 01:31:28;;;;;;;68.53;28.65;;;2.20;92.70;;;;;;4935765;29;20191;-76
2020/12/18 01:33:54;;;;;;;72.65;30.27;;;2.20;92.80;;;;;;4936348;29;20127;-76
2020/12/18 01:36:19;;;;;;;69.53;29.08;;;2.20;92.90;;;;;;4936312;29;20114;-76
2020/12/18 01:38:46;;;;;;;66.20;26.95;;;2.20;92.70;;;;;;4953475;29;20039;-77
2020/12/18 01:41:11;;;;;;;69.53;29.08;;;2.10;92.60;;;;;;4938031;29;20134;-76
2020/12/18 01:43:37;;;;;;;64.30;27.90;;;2.10;92.70;;;;;;4954778;29;20114;-76
2020/12/18 01:46:09;;;;;;;73.22;28.98;;;2.00;92.60;;;;;;4954872;28;20463;-76
2020/12/18 01:48:38;;;;;;;73.22;29.63;;;2.00;93.00;;;;;;4954868;29;20027;-76
2020/12/18 01:51:06;;;;;;;81.57;32.38;;;2.00;93.10;;;;;;4954686;29;20035;-76
2020/12/18 01:53:32;;;;;;;71.63;29.17;;;1.90;93.20;;;;;;4954462;29;20035;-76
2020/12/18 01:55:58;;;;;;;71.90;28.30;;;1.80;92.90;;;;;;4954440;29;20470;-76
2020/12/18 01:58:24;;;;;;;78.65;31.73;;;1.70;93.20;;;;;;4954685;29;20078;-76
2020/12/18 02:00:51;;;;;;;78.68;30.58;;;1.70;93.50;;;;;;4954587;29;20055;-76
2020/12/18 02:03:16;;;;;;;83.25;31.55;;;1.80;93.60;;;;;;4954382;29;20395;-76
2020/12/18 02:05:42;;;;;;;78.70;30.17;;;1.80;93.60;;;;;;4952674;29;20056;-75
2020/12/18 02:08:08;;;;;;;74.90;30.08;;;1.90;93.40;;;;;;4948107;28;20030;-77
2020/12/18 02:10:34;;;;;;;69.30;28.20;;;1.80;93.30;;;;;;4964003;28;20122;-76
2020/12/18 02:13:00;;;;;;;69.85;28.45;;;1.80;93.30;;;;;;4961233;22;20566;-75
2020/12/18 02:15:26;;;;;;;74.80;29.20;;;1.70;93.20;;;;;;4954115;28;20035;-76
2020/12/18 02:17:52;;;;;;;62.70;26.58;;;1.60;93.30;;;;;;4952812;29;20364;-74
2020/12/18 02:20:18;;;;;;;70.55;27.45;;;1.50;93.30;;;;;;4953359;28;20027;-77
2020/12/18 02:22:44;;;;;;;71.85;27.52;;;1.40;93.60;;;;;;4953996;28;20035;-75
2020/12/18 02:25:11;;;;;;;65.75;28.30;;;1.40;93.50;;;;;;4953750;28;20442;-74
2020/12/18 02:27:38;;;;;;;81.05;30.55;;;1.40;93.80;;;;;;4953737;28;20170;-75
2020/12/18 02:30:08;;;;;;;81.25;29.83;;;1.60;94.30;;;;;;4954029;28;20090;-76
2020/12/18 02:32:35;;;;;;;78.50;29.23;;;1.80;94.00;;;;;;4953728;28;20609;-75
2020/12/18 02:35:01;;;;;;;87.25;31.17;;;1.70;93.60;;;;;;4952586;29;20035;-75
2020/12/18 02:37:27;;;;;;;76.30;29.38;;;1.70;93.70;;;;;;4952448;28;20106;-75
2020/12/18 02:40:00;;;;;;;94.63;31.13;;;1.70;93.60;;;;;;4953541;28;20034;-75
2020/12/18 02:42:26;;;;;;;72.57;29.00;;;1.70;93.70;;;;;;4953830;28;20409;-75
2020/12/18 02:44:51;;;;;;;82.07;29.88;;;1.60;93.70;;;;;;4953999;28;20027;-76
2020/12/18 02:47:17;;;;;;;73.25;28.92;;;1.50;93.70;;;;;;4953874;29;20140;-76
2020/12/18 02:49:43;;;;;;;78.20;29.02;;;1.50;93.90;;;;;;4952462;29;20110;-76
2020/12/18 02:52:09;;;;;;;72.57;28.98;;;1.50;94.00;;;;;;4953623;29;20023;-75
2020/12/18 02:54:35;;;;;;;72.07;27.98;;;1.70;94.10;;;;;;4953528;28;20035;-76
2020/12/18 02:57:01;;;;;;;74.00;28.73;;;1.70;94.00;;;;;;4953277;28;20537;-76
2020/12/18 02:59:26;;;;;;;69.43;25.95;;;1.70;93.70;;;;;;4953342;29;20081;-75
2020/12/18 03:01:52;;;;;;;62.00;25.63;;;1.60;93.60;;;;;;4953556;28;20383;-75
2020/12/18 03:04:17;;;;;;;62.53;25.77;;;1.50;93.50;;;;;;4952261;29;20158;-75
2020/12/18 03:06:43;;;;;;;49.60;20.52;;;1.40;93.40;;;;;;4953083;28;20059;-75
2020/12/18 03:09:10;;;;;;;47.28;21.10;;;1.40;93.30;;;;;;4951950;29;20027;-75
2020/12/18 03:11:35;;;;;;;42.72;20.80;;;1.30;93.30;;;;;;4935846;28;20024;-74
2020/12/18 03:14:01;;;;;;;49.25;22.17;;;1.20;93.30;;;;;;4933793;29;20180;-75
2020/12/18 03:16:27;;;;;;;68.00;25.75;;;1.10;93.30;;;;;;4934082;29;20047;-75
2020/12/18 03:18:52;;;;;;;70.97;24.58;;;1.10;93.80;;;;;;4934148;29;20028;-74
2020/12/18 03:21:18;;;;;;;91.55;33.00;;;1.20;94.30;;;;;;4933964;29;20036;-75
2020/12/18 03:23:44;;;;;;;86.75;33.25;;;1.50;94.70;;;;;;4932867;29;20032;-74
2020/12/18 03:26:09;;;;;;;87.65;31.40;;;1.60;94.60;;;;;;4934455;29;20024;-76
2020/12/18 03:28:35;;;;;;;75.32;29.58;;;1.70;94.30;;;;;;4934211;29;20553;-75
2020/12/18 03:31:00;;;;;;;76.22;27.48;;;1.60;94.10;;;;;;4934806;29;20394;-75
2020/12/18 03:33:26;;;;;;;79.85;29.08;;;1.60;94.00;;;;;;4937823;29;20032;-75
2020/12/18 03:35:52;;;;;;;71.53;28.52;;;1.50;94.00;;;;;;4937722;29;20035;-75
2020/12/18 03:38:17;;;;;;;84.03;29.45;;;1.40;94.00;;;;;;4950295;29;20031;-75
2020/12/18 03:40:43;;;;;;;71.70;27.23;;;1.40;94.00;;;;;;4957122;29;20024;-75
2020/12/18 03:43:09;;;;;;;67.32;26.33;;;1.30;94.10;;;;;;4955479;29;20031;-75
2020/12/18 03:45:35;;;;;;;80.18;29.50;;;1.20;94.00;;;;;;4955311;28;20034;-75
2020/12/18 03:48:00;;;;;;;83.35;27.50;;;1.10;94.10;;;;;;4956801;29;20035;-76
2020/12/18 03:50:26;;;;;;;76.60;26.08;;;1.20;94.40;;;;;;4956665;29;20107;-76
2020/12/18 03:52:52;;;;;;;74.63;26.40;;;1.20;94.50;;;;;;4956883;28;20109;-76
2020/12/18 03:55:17;;;;;;;86.07;30.25;;;1.40;94.50;;;;;;4956563;29;20421;-76
2020/12/18 03:57:43;;;;;;;75.20;27.33;;;1.50;94.40;;;;;;4956404;29;20048;-76
2020/12/18 04:00:09;;;;;;;66.07;26.05;;;1.50;94.20;;;;;;4956533;29;20078;-76
2020/12/18 04:02:35;;;;;;;67.80;25.38;;;1.50;94.00;;;;;;4956728;29;20031;-77
2020/12/18 04:05:01;;;;;;;71.03;25.95;;;1.40;94.10;;;;;;4956837;28;20540;-77
2020/12/18 04:07:26;;;;;;;65.28;27.17;;;1.40;94.20;;;;;;4955326;29;20031;-77
2020/12/18 04:09:52;;;;;;;74.28;27.48;;;1.50;94.20;;;;;;4953238;29;20091;-77
2020/12/18 04:12:18;;;;;;;89.03;28.98;;;1.50;94.30;;;;;;4937519;29;20020;-77
2020/12/18 04:14:43;;;;;;;69.22;27.10;;;1.60;94.20;;;;;;4936901;29;20051;-76
2020/12/18 04:17:10;;;;;;;70.55;26.80;;;1.50;94.10;;;;;;4937180;29;20419;-76
2020/12/18 04:19:36;;;;;;;71.35;25.90;;;1.50;94.00;;;;;;4936662;29;20032;-76
2020/12/18 04:22:01;;;;;;;66.35;26.90;;;1.50;94.10;;;;;;4936839;29;20023;-77
2020/12/18 04:24:27;;;;;;;65.32;26.15;;;1.50;94.20;;;;;;4935724;29;20075;-77
2020/12/18 04:26:53;;;;;;;57.20;22.80;;;1.50;94.00;;;;;;4937087;29;20082;-77
2020/12/18 04:29:19;;;;;;;60.35;23.38;;;1.40;93.80;;;;;;4936897;29;20079;-77
2020/12/18 04:31:45;;;;;;;52.33;21.02;;;1.30;93.70;;;;;;4936790;29;20475;-77
2020/12/18 04:34:11;;;;;;;40.90;18.95;;;1.20;93.70;;;;;;4936770;29;20028;-77
2020/12/18 04:36:37;;;;;;;40.47;18.55;;;1.10;93.60;;;;;;4936591;29;20070;-78
2020/12/18 04:39:04;;;;;;;72.40;25.25;;;1.00;93.50;;;;;;4952596;29;20081;-78
2020/12/18 04:41:30;;;;;;;73.15;26.17;;;1.10;94.10;;;;;;4954713;29;20030;-78
2020/12/18 04:43:56;;;;;;;83.78;28.75;;;1.20;94.60;;;;;;4954912;28;20023;-78
2020/12/18 04:46:23;;;;;;;74.25;26.05;;;1.40;94.70;;;;;;4955663;28;20397;-78
2020/12/18 04:48:50;;;;;;;81.88;28.17;;;1.50;94.60;;;;;;4955544;28;20023;-78
2020/12/18 04:51:21;;;;;;;71.97;26.67;;;1.60;94.60;;;;;;4955847;28;20035;-78
2020/12/18 04:53:49;;;;;;;66.75;24.83;;;1.60;94.40;;;;;;4954345;29;20034;-78
2020/12/18 04:56:23;;;;;;;55.35;22.13;;;1.60;94.20;;;;;;4955635;28;20078;-77
2020/12/18 04:58:53;;;;;;;56.10;22.85;;;1.50;94.00;;;;;;4955505;28;20098;-76
2020/12/18 05:01:24;;;;;;;45.97;18.33;;;1.50;94.10;;;;;;4955237;28;20050;-77
2020/12/18 05:03:51;;;;;;;78.40;27.47;;;1.50;94.10;;;;;;4955501;28;20267;-77
2020/12/18 05:06:17;;;;;;;74.18;27.98;;;1.50;94.40;;;;;;4953873;29;20203;-76
2020/12/18 05:08:43;;;;;;;67.78;25.55;;;1.50;94.40;;;;;;4955448;28;20028;-76
2020/12/18 05:11:21;;;;;;;57.70;23.17;;;1.50;94.40;;;;;;4941416;28;20028;-75
2020/12/18 05:13:47;;;;;;;64.05;24.92;;;1.40;93.90;;;;;;4935753;29;20047;-76
2020/12/18 05:16:16;;;;;;;56.75;21.80;;;1.20;93.90;;;;;;4935838;29;20059;-75
2020/12/18 05:18:41;;;;;;;52.70;21.55;;;1.20;94.00;;;;;;4936188;29;20024;-75
2020/12/18 05:21:07;;;;;;;49.25;19.77;;;1.00;93.80;;;;;;4935975;29;20471;-76
2020/12/18 05:23:38;;;;;;;56.17;22.23;;;0.90;93.60;;;;;;4935661;29;20034;-75
2020/12/18 05:26:07;;;;;;;62.22;22.00;;;0.80;93.70;;;;;;4935915;29;20030;-76
2020/12/18 05:28:45;;;;;;;56.90;22.50;;;1.00;94.90;;;;;;4934500;29;20032;-76
2020/12/18 05:31:15;;;;;;;48.42;18.88;;;1.00;94.60;;;;;;4935747;29;20459;-76
2020/12/18 05:33:42;;;;;;;72.97;25.13;;;1.00;94.60;;;;;;4935974;29;20031;-76
2020/12/18 05:36:08;;;;;;;61.60;21.20;;;1.10;94.80;;;;;;4935439;29;20035;-76
2020/12/18 05:38:38;;;;;;;73.05;24.95;;;1.00;94.50;;;;;;4950191;29;20062;-76
2020/12/18 05:41:06;;;;;;;62.15;24.02;;;1.00;94.80;;;;;;4954332;28;20028;-76
2020/12/18 05:43:39;;;;;;;67.85;25.40;;;1.20;95.00;;;;;;4954535;28;20031;-76
2020/12/18 05:46:24;;;;;;;72.50;25.55;;;1.10;94.80;;;;;;4954499;28;20498;-77
2020/12/18 05:49:04;;;;;;;100.13;31.05;;;1.10;94.70;;;;;;4954548;28;20414;-76
2020/12/18 05:51:37;;;;;;;92.60;32.38;;;1.20;95.00;;;;;;4954282;28;20035;-76
2020/12/18 05:54:05;;;;;;;99.50;29.80;;;1.30;95.10;;;;;;4954388;28;20240;-76
2020/12/18 05:56:33;;;;;;;84.30;29.88;;;1.40;95.20;;;;;;4952946;28;20099;-76
2020/12/18 05:59:14;;;;;;;91.07;30.75;;;1.40;95.00;;;;;;4954273;28;20028;-77
2020/12/18 06:01:42;;;;;;;91.78;29.85;;;1.40;95.00;;;;;;4954106;28;20027;-77
2020/12/18 06:04:20;;;;;;;106.13;32.08;;;1.40;95.00;;;;;;4954053;28;20038;-77
2020/12/18 06:06:54;;;;;;;102.22;34.03;;;1.40;95.00;;;;;;4954419;28;20493;-78
2020/12/18 06:09:21;;;;;;;85.38;29.73;;;1.40;95.00;;;;;;4934840;29;20036;-75
2020/12/18 06:11:48;;;;;;;97.43;31.38;;;1.40;95.00;;;;;;4953556;29;20027;-77
2020/12/18 06:14:16;;;;;;;90.72;31.17;;;1.40;95.00;;;;;;4953718;28;20062;-76
2020/12/18 06:16:48;;;;;;;94.35;31.35;;;1.40;94.90;;;;;;4952540;29;20030;-77
2020/12/18 06:19:16;;;;;;;96.35;33.45;;;1.30;94.90;;;;;;4954105;28;20031;-76
2020/12/18 06:22:02;;;;;;;87.32;31.77;;;1.30;95.10;;;;;;4954117;28;20034;-76
2020/12/18 06:24:28;;;;;;;99.78;32.25;;;1.40;95.20;;;;;;4953305;28;20039;-76
2020/12/18 06:26:56;;;;;;;98.15;32.03;;;1.40;95.10;;;;;;4953475;28;20059;-77
2020/12/18 06:29:24;;;;;;;91.00;31.83;;;1.40;95.20;;;;;;4954024;28;20098;-75
2020/12/18 06:31:49;;;;;;;94.13;31.83;;;1.50;95.20;;;;;;4953839;28;20138;-77
2020/12/18 06:34:26;;;;;;;85.70;30.30;;;1.40;95.00;;;;;;4952592;29;20027;-77
2020/12/18 06:36:52;;;;;;;102.40;34.15;;;1.40;95.10;;;;;;4953507;28;20043;-76
2020/12/18 06:39:21;;;;;;;91.65;32.75;;;1.40;95.20;;;;;;4952233;29;20046;-77
2020/12/18 06:41:47;;;;;;;85.90;29.05;;;1.40;95.10;;;;;;4953547;28;20027;-77
2020/12/18 06:44:42;;;;;;;102.88;32.00;;;1.40;95.20;;;;;;4953421;28;20078;-78
2020/12/18 06:47:15;;;;;;;80.20;29.35;;;1.40;95.20;;;;;;4936642;28;20113;-77
2020/12/18 06:49:57;;;;;;;87.85;31.02;;;1.50;95.30;;;;;;4953366;28;20027;-78
2020/12/18 06:52:45;;;;;;;84.45;28.90;;;1.60;95.20;;;;;;4952130;28;20113;-78
2020/12/18 06:55:38;;;;;;;81.05;28.33;;;1.60;95.00;;;;;;4953423;28;20082;-77
2020/12/18 06:58:09;;;;;;;82.47;27.95;;;1.60;95.00;;;;;;4949713;28;20047;-78
2020/12/18 07:00:41;;;;;;;73.43;27.10;;;1.60;95.00;;;;;;4953363;28;20119;-77
2020/12/18 07:03:07;;;;;;;71.85;27.00;;;1.70;94.80;;;;;;4953055;29;20142;-77
2020/12/18 07:05:40;;;;;;;71.88;25.40;;;1.70;94.60;;;;;;4951708;29;20027;-77
2020/12/18 07:08:11;;;;;;;69.07;25.52;;;1.60;94.50;;;;;;4942432;28;20028;-76
2020/12/18 07:10:39;;;;;;;64.55;25.17;;;1.60;94.40;;;;;;4941957;29;20463;-76
2020/12/18 07:13:06;;;;;;;68.63;26.02;;;1.60;94.40;;;;;;4952918;28;20086;-76
2020/12/18 07:15:45;;;;;;;69.32;24.73;;;1.50;94.50;;;;;;4952963;28;20027;-77
2020/12/18 07:18:30;;;;;;;63.85;23.45;;;1.60;94.50;;;;;;4953060;28;20131;-77
2020/12/18 07:21:01;;;;;;;72.38;27.60;;;1.60;94.60;;;;;;4953090;28;20023;-75
2020/12/18 07:23:29;;;;;;;68.60;26.88;;;1.60;94.60;;;;;;4953055;28;20031;-75
2020/12/18 07:25:56;;;;;;;79.53;27.83;;;1.60;94.60;;;;;;4953219;28;20035;-76
2020/12/18 07:28:23;;;;;;;81.45;29.40;;;1.70;94.60;;;;;;4951752;29;20031;-76
2020/12/18 07:30:50;;;;;;;62.22;23.73;;;1.70;94.60;;;;;;4953095;28;20030;-74
2020/12/18 07:33:18;;;;;;;58.17;23.23;;;1.80;94.50;;;;;;4953004;28;20027;-76
2020/12/18 07:35:50;;;;;;;60.85;24.77;;;1.80;94.50;;;;;;4952790;28;20027;-75
2020/12/18 07:38:18;;;;;;;69.53;27.67;;;1.90;94.40;;;;;;4952970;28;20023;-78
2020/12/18 07:40:45;;;;;;;55.30;24.00;;;2.00;94.40;;;;;;4951445;29;20023;-78
2020/12/18 07:43:13;;;;;;;63.28;25.63;;;2.00;94.20;;;;;;4948954;28;20058;-77
2020/12/18 07:45:44;;;;;;;55.55;22.50;;;2.10;94.00;;;;;;4951503;28;20082;-78
2020/12/18 07:48:11;;;;;;;47.80;21.58;;;2.20;93.80;;;;;;4950230;28;20921;-77
2020/12/18 07:50:37;;;;;;;45.65;20.42;;;2.30;93.50;;;;;;4950483;29;20019;-75
2020/12/18 07:53:10;;;;;;;49.40;21.35;;;2.40;93.20;;;;;;4952917;28;20034;-77
2020/12/18 07:55:36;;;;;;;47.97;20.77;;;2.50;93.20;;;;;;4952671;29;20030;-77
2020/12/18 07:58:04;;;;;;;37.35;17.85;;;2.70;92.50;;;;;;4947972;28;20036;-79
2020/12/18 08:00:29;;;;;;;42.85;18.88;;;2.60;92.10;;;;;;4945820;29;20019;-79
2020/12/18 08:02:55;;;;;;;35.33;18.50;;;2.70;91.70;;;;;;4951148;29;20115;-79
2020/12/18 08:05:22;;;;;;;36.08;18.83;;;2.70;91.40;;;;;;4948480;29;20082;-80
2020/12/18 08:07:50;;;;;;;38.35;18.05;;;2.60;91.40;;;;;;4948082;29;20102;-80
2020/12/18 08:10:17;;;;;;;36.47;18.38;;;2.70;91.70;;;;;;4951457;28;20082;-76
2020/12/18 08:12:47;;;;;;;37.05;17.45;;;3.00;91.20;;;;;;4948057;28;20027;-74
2020/12/18 08:15:14;;;;;;;29.10;15.38;;;3.00;90.00;;;;;;4951519;28;20049;-77
2020/12/18 08:17:41;;;;;;;34.78;16.58;;;2.90;90.10;;;;;;4950483;28;20058;-78
2020/12/18 08:20:11;;;;;;;35.33;15.68;;;2.80;90.90;;;;;;4954405;28;20023;-77
2020/12/18 08:22:41;;;;;;;34.58;15.85;;;2.90;90.40;;;;;;4954692;29;20581;-81
2020/12/18 08:25:08;;;;;;;32.97;16.52;;;2.90;90.20;;;;;;4956065;28;20031;-79
2020/12/18 08:27:55;;;;;;;32.13;17.52;;;3.00;90.30;;;;;;4951774;28;20023;-72
2020/12/18 08:30:25;;;;;;;35.75;15.77;;;3.00;90.10;;;;;;4954393;29;20029;-72
2020/12/18 08:32:54;;;;;;;28.83;15.02;;;3.10;89.80;;;;;;4955764;28;20054;-73
2020/12/18 08:35:21;;;;;;;26.55;14.30;;;3.20;89.70;;;;;;4955562;28;20447;-73
2020/12/18 08:37:48;;;;;;;27.60;15.32;;;3.30;89.40;;;;;;4955388;28;20044;-70
2020/12/18 08:40:24;;;;;;;31.80;14.70;;;3.40;88.90;;;;;;4954085;28;20019;-70
2020/12/18 08:43:02;;;;;;;29.40;15.90;;;3.30;89.00;;;;;;4955538;29;20059;-71
2020/12/18 08:45:28;;;;;;;29.38;14.70;;;3.40;88.80;;;;;;4955314;28;20031;-74
2020/12/18 08:47:55;;;;;;;32.55;16.00;;;3.50;88.70;;;;;;4955276;28;20423;-73
2020/12/18 08:50:21;;;;;;;33.13;14.77;;;3.50;88.60;;;;;;4955341;28;20023;-75
2020/12/18 08:52:47;;;;;;;42.58;21.15;;;3.60;88.20;;;;;;4955030;28;20035;-72
2020/12/18 08:55:14;;;;;;;32.40;14.63;;;3.50;88.00;;;;;;4955074;29;20026;-73
2020/12/18 08:57:40;;;;;;;50.47;24.58;;;3.60;88.00;;;;;;4955098;28;20043;-74
2020/12/18 09:00:18;;;;;;;35.10;17.33;;;3.60;88.10;;;;;;4955210;28;20019;-73
2020/12/18 09:02:57;;;;;;;33.33;16.27;;;3.80;87.70;;;;;;4953624;29;20078;-73
2020/12/18 09:05:27;;;;;;;32.50;15.93;;;3.90;87.60;;;;;;4954855;28;20023;-73
2020/12/18 09:08:00;;;;;;;28.27;15.20;;;4.00;87.10;;;;;;4954905;28;20065;-72
2020/12/18 09:10:45;;;;;;;33.65;15.77;;;4.10;86.50;;;;;;4955074;28;20163;-72
2020/12/18 09:13:14;;;;;;;34.05;18.35;;;4.20;86.40;;;;;;4954775;28;20047;-73
2020/12/18 09:15:41;;;;;;;31.70;15.85;;;4.50;85.60;;;;;;4948638;29;20035;-75
2020/12/18 09:18:13;;;;;;;26.05;14.07;;;4.40;85.40;;;;;;4954660;28;20032;-75
2020/12/18 09:20:40;;;;;;;;;;;4.40;85.50;;;;;;4953854;29;20024;-76
2020/12/18 09:23:08;;;;;;;30.80;15.20;;;4.50;85.10;;;;;;4945239;28;19907;-75
2020/12/18 09:25:41;;;;;;;35.60;17.80;;;4.60;85.20;;;;;;4953013;29;20038;-74
2020/12/18 09:28:17;;;;;;;25.30;13.80;;;4.70;85.10;;;;;;4954500;28;20030;-75
2020/12/18 09:30:54;;;;;;;25.60;13.68;;;4.80;84.10;;;;;;4955660;28;20081;-74
2020/12/18 09:33:25;;;;;;;25.13;13.55;;;4.90;84.20;;;;;;4954568;29;20034;-75
2020/12/18 09:36:10;;;;;;;22.88;12.90;;;4.90;83.90;;;;;;4955623;29;20027;-74
2020/12/18 09:38:39;;;;;;;25.58;14.05;;;4.90;83.80;;;;;;4954140;29;20023;-74
2020/12/18 09:41:14;;;;;;;51.00;24.45;;;4.80;83.80;;;;;;4955525;28;20390;-74
2020/12/18 09:43:40;;;;;;;52.60;25.13;;;4.80;84.70;;;;;;4951481;28;20089;-74
2020/12/18 09:46:11;;;;;;;25.65;13.07;;;4.80;84.60;;;;;;4954164;29;20106;-73
2020/12/18 09:48:38;;;;;;;37.08;17.00;;;4.90;84.50;;;;;;4950210;28;20031;-72
2020/12/18 09:51:03;;;;;;;37.25;17.45;;;4.90;84.60;;;;;;4952399;28;20031;-74
2020/12/18 09:53:29;;;;;;;36.22;18.38;;;4.90;84.80;;;;;;4954093;29;20034;-73
2020/12/18 09:55:55;;;;;;;33.85;16.30;;;5.00;84.80;;;;;;4953949;29;20034;-78
2020/12/18 09:58:20;;;;;;;30.02;14.68;;;5.00;84.70;;;;;;4954147;29;20107;-74
2020/12/18 10:00:47;;;;;;;25.92;14.18;;;5.00;84.90;;;;;;4953992;28;20027;-75
2020/12/18 10:03:13;;;;;;;28.98;15.45;;;5.10;84.70;;;;;;4953989;28;20368;-74
2020/12/18 10:05:38;;;;;;;25.42;14.38;;;5.10;84.70;;;;;;4953827;29;20027;-75
2020/12/18 10:08:04;;;;;;;30.45;15.95;;;5.10;84.60;;;;;;4953841;29;20583;-77
2020/12/18 10:10:30;;;;;;;41.65;16.75;;;5.10;84.90;;;;;;4953895;28;20030;-85
2020/12/18 10:12:57;;;;;;;39.38;19.63;;;5.20;84.90;;;;;;4952517;29;20051;-82
2020/12/18 10:15:24;;;;;;;32.78;17.33;;;5.30;84.80;;;;;;4953784;28;20038;-78
2020/12/18 10:17:50;;;;;;;28.33;14.88;;;5.40;84.30;;;;;;4953568;28;20549;-80
2020/12/18 10:20:16;;;;;;;22.45;12.50;;;5.40;84.30;;;;;;4954324;28;20082;-76
2020/12/18 10:22:41;;;;;;;34.20;15.60;;;5.50;84.20;;;;;;4953798;29;20534;-77
2020/12/18 10:25:07;;;;;;;23.63;12.80;;;5.50;84.10;;;;;;4953739;29;20030;-74
2020/12/18 10:27:34;;;;;;;24.13;13.23;;;5.50;84.20;;;;;;4953477;28;20027;-73
2020/12/18 10:30:00;;;;;;;25.60;12.93;;;5.50;84.00;;;;;;4952178;29;20034;-76
2020/12/18 10:32:27;;;;;;;30.20;14.05;;;5.60;83.90;;;;;;4952375;29;20501;-74
2020/12/18 10:34:53;;;;;;;26.73;14.48;;;5.70;83.50;;;;;;4953276;28;20056;-75
2020/12/18 10:37:18;;;;;;;29.38;11.98;;;5.70;83.30;;;;;;4952040;29;20522;-74
2020/12/18 10:39:44;;;;;;;23.67;13.02;;;5.80;83.20;;;;;;4936111;29;20042;-74
2020/12/18 10:42:10;;;;;;;21.08;11.75;;;5.90;82.80;;;;;;4952580;28;20038;-77
2020/12/18 10:44:36;;;;;;;28.23;14.88;;;6.00;82.80;;;;;;4951981;29;20059;-74
2020/12/18 10:47:02;;;;;;;29.00;15.45;;;6.00;82.70;;;;;;4952072;29;20034;-76
2020/12/18 10:49:28;;;;;;;21.83;12.07;;;6.10;82.50;;;;;;4953018;28;20125;-71
2020/12/18 10:51:54;;;;;;;20.45;11.80;;;6.10;82.30;;;;;;4953049;29;20055;-73
2020/12/18 10:54:19;;;;;;;18.70;11.18;;;6.20;82.10;;;;;;4953233;28;20541;-77
2020/12/18 10:56:55;;;;;;;20.77;12.07;;;6.20;82.20;;;;;;4952995;29;20122;-79
2020/12/18 10:59:21;;;;;;;23.08;10.88;;;6.20;82.00;;;;;;4953112;28;20033;-74
2020/12/18 11:01:54;;;;;;;21.92;11.55;;;6.30;82.00;;;;;;4951717;29;20031;-76
2020/12/18 11:04:20;;;;;;;22.23;11.13;;;6.30;82.20;;;;;;4953190;28;20038;-75
2020/12/18 11:06:47;;;;;;;18.98;11.05;;;6.30;82.30;;;;;;4952979;29;20028;-74
2020/12/18 11:09:14;;;;;;;19.85;11.02;;;6.30;82.00;;;;;;4953167;28;20498;-74
2020/12/18 11:11:40;;;;;;;21.15;12.10;;;6.40;82.00;;;;;;4952892;28;20139;-73
2020/12/18 11:14:05;;;;;;;19.15;11.13;;;6.40;82.10;;;;;;4941626;28;20134;-76
2020/12/18 11:16:32;;;;;;;20.05;10.70;;;6.50;81.50;;;;;;4934641;29;20035;-73
2020/12/18 11:19:01;;;;;;;27.98;15.02;;;6.50;81.50;;;;;;4934450;29;20109;-72
2020/12/18 11:21:28;;;;;;;20.38;11.32;;;6.60;81.50;;;;;;4934385;29;20027;-71
2020/12/18 11:23:53;;;;;;;24.40;13.63;;;6.70;81.10;;;;;;4973119;23;20485;-74
2020/12/18 11:26:19;;;;;;;16.85;10.57;;;6.80;80.60;;;;;;4965010;28;20088;-72
2020/12/18 11:28:45;;;;;;;22.08;11.30;;;6.80;80.40;;;;;;4988203;28;20101;-72
2020/12/18 11:31:10;;;;;;;16.02;9.88;;;6.80;80.10;;;;;;4987169;28;20022;-72
2020/12/18 11:33:36;;;;;;;17.02;10.50;;;6.90;79.90;;;;;;4978955;28;20026;-72
2020/12/18 11:36:02;;;;;;;16.02;9.02;;;6.90;79.90;;;;;;4980341;28;20031;-72
2020/12/18 11:38:28;;;;;;;16.52;8.75;;;6.90;79.90;;;;;;4968337;28;20026;-72
2020/12/18 11:40:53;;;;;;;17.70;9.85;;;7.00;79.70;;;;;;4974330;28;20023;-71
2020/12/18 11:43:19;;;;;;;16.27;9.70;;;7.00;79.70;;;;;;4966715;28;20020;-71
2020/12/18 11:45:45;;;;;;;18.20;9.65;;;7.00;79.60;;;;;;4960384;28;20035;-72
2020/12/18 11:48:11;;;;;;;19.52;9.70;;;7.00;78.80;;;;;;4960281;28;20039;-70
2020/12/18 11:50:36;;;;;;;15.40;8.63;;;7.20;78.10;;;;;;4971048;28;20035;-71
2020/12/18 11:53:04;;;;;;;16.75;9.10;;;7.30;77.50;;;;;;4971030;28;20058;-70
2020/12/18 11:55:31;;;;;;;19.45;9.63;;;7.30;77.30;;;;;;4962436;28;20018;-74
2020/12/18 11:57:57;;;;;;;16.67;9.15;;;7.40;77.00;;;;;;4965125;28;20035;-76
2020/12/18 12:00:23;;;;;;;14.50;8.48;;;7.40;76.90;;;;;;4969081;28;20393;-78
2020/12/18 12:02:50;;;;;;;17.98;9.50;;;7.40;76.90;;;;;;4959242;28;20027;-77
2020/12/18 12:05:19;;;;;;;18.42;9.43;;;7.40;76.40;;;;;;4970882;28;20027;-78
2020/12/18 12:07:46;;;;;;;18.13;9.15;;;7.40;76.50;;;;;;4964955;28;20116;-78
2020/12/18 12:10:13;;;;;;;13.13;8.38;;;7.50;75.90;;;;;;4963592;28;20557;-79
2020/12/18 12:12:39;;;;;;;14.05;8.63;;;7.40;75.70;;;;;;4971469;28;20118;-77
2020/12/18 12:15:07;;;;;;;18.52;9.43;;;7.40;75.70;;;;;;4959105;28;20027;-77
2020/12/18 12:17:33;;;;;;;15.05;8.32;;;7.50;75.40;;;;;;4968132;28;20046;-77
2020/12/18 12:19:59;;;;;;;16.88;9.48;;;7.40;75.50;;;;;;4965825;28;20023;-77
2020/12/18 12:22:25;;;;;;;16.00;8.23;;;7.40;75.70;;;;;;4961318;28;20062;-76
2020/12/18 12:24:51;;;;;;;14.77;9.20;;;7.40;76.00;;;;;;4959412;28;20031;-76
2020/12/18 12:27:23;;;;;;;13.07;8.27;;;7.30;76.10;;;;;;4970330;28;20483;-76
2020/12/18 12:29:49;;;;;;;24.95;12.82;;;7.40;76.00;;;;;;4964650;28;20102;-76
2020/12/18 12:32:15;;;;;;;18.60;9.35;;;7.40;75.90;;;;;;4962601;28;20115;-76
2020/12/18 12:34:41;;;;;;;20.13;9.95;;;7.30;76.40;;;;;;4971329;28;20030;-76
2020/12/18 12:37:08;;;;;;;16.45;9.75;;;7.30;76.20;;;;;;4957303;28;20031;-76
2020/12/18 12:39:34;;;;;;;15.52;9.70;;;7.30;75.60;;;;;;4967872;28;20027;-76
2020/12/18 12:42:04;;;;;;;15.75;9.48;;;7.40;75.00;;;;;;4964116;28;20165;-76